sensor_id;sensor_type;location;lat;lon;timestamp;temperature;humidity
61386;DHT22;47256;18.904;-99.054;2023-01-26T00:01:30;25.10;56.50
61386;DHT22;47256;18.904;-99.054;2023-01-26T00:03:58;25.00;56.20
61386;DHT22;47256;18.904;-99.054;2023-01-26T00:06:25;25.00;56.50
61386;DHT22;47256;18.904;-99.054;2023-01-26T00:08:54;25.00;57.50
61386;DHT22;47256;18.904;-99.054;2023-01-26T00:11:26;25.00;58.40
61386;DHT22;47256;18.904;-99.054;2023-01-26T00:13:56;24.90;59.40
61386;DHT22;47256;18.904;-99.054;2023-01-26T00:16:25;24.90;60.10
61386;DHT22;47256;18.904;-99.054;2023-01-26T00:18:53;24.80;62.10
61386;DHT22;47256;18.904;-99.054;2023-01-26T00:21:22;24.80;63.10
61386;DHT22;47256;18.904;-99.054;2023-01-26T00:23:50;24.70;63.70
61386;DHT22;47256;18.904;-99.054;2023-01-26T00:26:21;24.60;64.20
61386;DHT22;47256;18.904;-99.054;2023-01-26T00:28:49;24.50;65.50
61386;DHT22;47256;18.904;-99.054;2023-01-26T00:31:21;24.40;65.60
61386;DHT22;47256;18.904;-99.054;2023-01-26T00:33:49;24.30;67.30
61386;DHT22;47256;18.904;-99.054;2023-01-26T00:36:17;24.20;66.60
61386;DHT22;47256;18.904;-99.054;2023-01-26T00:38:44;24.10;68.00
61386;DHT22;47256;18.904;-99.054;2023-01-26T00:41:12;24.00;67.30
61386;DHT22;47256;18.904;-99.054;2023-01-26T00:43:59;24.00;67.90
61386;DHT22;47256;18.904;-99.054;2023-01-26T00:46:27;23.90;66.50
61386;DHT22;47256;18.904;-99.054;2023-01-26T00:48:54;23.80;67.20
61386;DHT22;47256;18.904;-99.054;2023-01-26T00:51:23;23.80;67.10
61386;DHT22;47256;18.904;-99.054;2023-01-26T00:53:51;23.70;66.90
61386;DHT22;47256;18.904;-99.054;2023-01-26T00:56:19;23.60;66.00
61386;DHT22;47256;18.904;-99.054;2023-01-26T00:58:46;23.60;65.70
61386;DHT22;47256;18.904;-99.054;2023-01-26T01:01:14;23.50;64.60
61386;DHT22;47256;18.904;-99.054;2023-01-26T01:03:42;23.50;64.20
61386;DHT22;47256;18.904;-99.054;2023-01-26T01:06:10;23.50;64.20
61386;DHT22;47256;18.904;-99.054;2023-01-26T01:08:37;23.50;63.40
61386;DHT22;47256;18.904;-99.054;2023-01-26T01:11:10;23.50;64.10
61386;DHT22;47256;18.904;-99.054;2023-01-26T01:13:38;23.50;64.20
61386;DHT22;47256;18.904;-99.054;2023-01-26T01:16:11;23.40;64.80
61386;DHT22;47256;18.904;-99.054;2023-01-26T01:18:40;23.40;64.90
61386;DHT22;47256;18.904;-99.054;2023-01-26T01:21:15;23.30;64.70
61386;DHT22;47256;18.904;-99.054;2023-01-26T01:23:43;23.30;67.10
61386;DHT22;47256;18.904;-99.054;2023-01-26T01:26:11;23.20;68.30
61386;DHT22;47256;18.904;-99.054;2023-01-26T01:28:40;23.10;68.30
61386;DHT22;47256;18.904;-99.054;2023-01-26T01:31:13;22.90;66.30
61386;DHT22;47256;18.904;-99.054;2023-01-26T01:33:41;22.90;69.20
61386;DHT22;47256;18.904;-99.054;2023-01-26T01:36:11;22.80;69.50
61386;DHT22;47256;18.904;-99.054;2023-01-26T01:38:39;22.70;68.90
61386;DHT22;47256;18.904;-99.054;2023-01-26T01:41:07;22.70;69.20
61386;DHT22;47256;18.904;-99.054;2023-01-26T01:43:35;22.60;67.90
61386;DHT22;47256;18.904;-99.054;2023-01-26T01:46:17;22.70;67.30
61386;DHT22;47256;18.904;-99.054;2023-01-26T01:48:47;22.70;67.80
61386;DHT22;47256;18.904;-99.054;2023-01-26T01:51:36;22.70;67.30
61386;DHT22;47256;18.904;-99.054;2023-01-26T01:54:08;22.70;66.90
61386;DHT22;47256;18.904;-99.054;2023-01-26T01:56:39;22.60;70.30
61386;DHT22;47256;18.904;-99.054;2023-01-26T01:59:10;22.50;71.00
61386;DHT22;47256;18.904;-99.054;2023-01-26T02:01:38;22.30;69.90
61386;DHT22;47256;18.904;-99.054;2023-01-26T02:04:07;22.30;71.50
61386;DHT22;47256;18.904;-99.054;2023-01-26T02:06:53;22.30;70.80
61386;DHT22;47256;18.904;-99.054;2023-01-26T02:09:33;22.30;70.90
61386;DHT22;47256;18.904;-99.054;2023-01-26T02:12:25;22.20;70.60
61386;DHT22;47256;18.904;-99.054;2023-01-26T02:14:54;22.30;69.70
61386;DHT22;47256;18.904;-99.054;2023-01-26T02:17:24;22.20;69.30
61386;DHT22;47256;18.904;-99.054;2023-01-26T02:20:07;22.20;69.80
61386;DHT22;47256;18.904;-99.054;2023-01-26T02:22:44;22.20;70.60
61386;DHT22;47256;18.904;-99.054;2023-01-26T02:27:58;22.20;73.00
61386;DHT22;47256;18.904;-99.054;2023-01-26T02:30:27;22.00;72.30
61386;DHT22;47256;18.904;-99.054;2023-01-26T02:32:55;22.00;71.90
61386;DHT22;47256;18.904;-99.054;2023-01-26T02:35:22;21.90;71.60
61386;DHT22;47256;18.904;-99.054;2023-01-26T02:37:50;21.90;71.10
61386;DHT22;47256;18.904;-99.054;2023-01-26T02:41:09;21.90;71.50
61386;DHT22;47256;18.904;-99.054;2023-01-26T02:43:30;21.90;71.50
61386;DHT22;47256;18.904;-99.054;2023-01-26T02:45:57;21.90;71.80
61386;DHT22;47256;18.904;-99.054;2023-01-26T02:48:26;21.90;72.30
61386;DHT22;47256;18.904;-99.054;2023-01-26T02:51:16;21.90;71.00
61386;DHT22;47256;18.904;-99.054;2023-01-26T02:53:45;21.90;71.60
61386;DHT22;47256;18.904;-99.054;2023-01-26T02:56:13;21.80;74.50
61386;DHT22;47256;18.904;-99.054;2023-01-26T02:58:41;21.60;73.60
61386;DHT22;47256;18.904;-99.054;2023-01-26T03:01:09;21.50;76.30
61386;DHT22;47256;18.904;-99.054;2023-01-26T03:03:46;21.40;74.80
61386;DHT22;47256;18.904;-99.054;2023-01-26T03:06:16;21.40;74.40
61386;DHT22;47256;18.904;-99.054;2023-01-26T03:08:44;21.40;74.10
61386;DHT22;47256;18.904;-99.054;2023-01-26T03:11:11;21.40;73.80
61386;DHT22;47256;18.904;-99.054;2023-01-26T03:13:38;21.50;74.70
61386;DHT22;47256;18.904;-99.054;2023-01-26T03:16:07;21.50;75.90
61386;DHT22;47256;18.904;-99.054;2023-01-26T03:18:36;21.40;76.10
61386;DHT22;47256;18.904;-99.054;2023-01-26T03:21:22;21.20;77.70
61386;DHT22;47256;18.904;-99.054;2023-01-26T03:24:13;21.10;77.80
61386;DHT22;47256;18.904;-99.054;2023-01-26T03:27:04;21.00;77.00
61386;DHT22;47256;18.904;-99.054;2023-01-26T03:29:51;21.10;76.50
61386;DHT22;47256;18.904;-99.054;2023-01-26T03:32:18;21.10;75.50
61386;DHT22;47256;18.904;-99.054;2023-01-26T03:34:47;21.00;77.00
61386;DHT22;47256;18.904;-99.054;2023-01-26T03:37:14;21.00;75.90
61386;DHT22;47256;18.904;-99.054;2023-01-26T03:39:52;21.00;75.90
61386;DHT22;47256;18.904;-99.054;2023-01-26T03:42:39;21.00;75.00
61386;DHT22;47256;18.904;-99.054;2023-01-26T03:45:29;21.00;76.80
61386;DHT22;47256;18.904;-99.054;2023-01-26T03:48:15;20.80;78.20
61386;DHT22;47256;18.904;-99.054;2023-01-26T03:51:05;20.70;77.50
61386;DHT22;47256;18.904;-99.054;2023-01-26T03:53:52;20.70;77.40
61386;DHT22;47256;18.904;-99.054;2023-01-26T03:56:39;20.70;77.30
61386;DHT22;47256;18.904;-99.054;2023-01-26T03:59:12;20.70;77.60
61386;DHT22;47256;18.904;-99.054;2023-01-26T04:01:44;20.70;77.10
61386;DHT22;47256;18.904;-99.054;2023-01-26T04:04:36;20.80;78.80
61386;DHT22;47256;18.904;-99.054;2023-01-26T04:07:26;20.70;77.30
61386;DHT22;47256;18.904;-99.054;2023-01-26T04:10:12;20.70;77.90
61386;DHT22;47256;18.904;-99.054;2023-01-26T04:12:39;20.70;78.90
61386;DHT22;47256;18.904;-99.054;2023-01-26T04:15:18;20.60;77.60
61386;DHT22;47256;18.904;-99.054;2023-01-26T04:18:07;20.60;77.60
61386;DHT22;47256;18.904;-99.054;2023-01-26T04:20:53;20.60;79.40
61386;DHT22;47256;18.904;-99.054;2023-01-26T04:23:43;20.50;79.10
61386;DHT22;47256;18.904;-99.054;2023-01-26T04:26:14;20.50;78.40
61386;DHT22;47256;18.904;-99.054;2023-01-26T04:28:41;20.50;79.90
61386;DHT22;47256;18.904;-99.054;2023-01-26T04:31:09;20.40;80.20
61386;DHT22;47256;18.904;-99.054;2023-01-26T04:33:37;20.30;80.50
61386;DHT22;47256;18.904;-99.054;2023-01-26T04:36:06;20.20;80.60
61386;DHT22;47256;18.904;-99.054;2023-01-26T04:38:37;20.20;80.70
61386;DHT22;47256;18.904;-99.054;2023-01-26T04:41:04;20.10;80.10
61386;DHT22;47256;18.904;-99.054;2023-01-26T04:43:38;20.00;75.30
61386;DHT22;47256;18.904;-99.054;2023-01-26T04:46:07;20.00;76.80
61386;DHT22;47256;18.904;-99.054;2023-01-26T04:48:36;20.00;74.80
61386;DHT22;47256;18.904;-99.054;2023-01-26T04:51:08;20.00;76.80
61386;DHT22;47256;18.904;-99.054;2023-01-26T04:53:37;19.90;76.60
61386;DHT22;47256;18.904;-99.054;2023-01-26T04:56:05;19.80;76.40
61386;DHT22;47256;18.904;-99.054;2023-01-26T04:58:35;19.70;75.80
61386;DHT22;47256;18.904;-99.054;2023-01-26T05:01:08;19.70;75.40
61386;DHT22;47256;18.904;-99.054;2023-01-26T05:03:36;19.80;76.50
61386;DHT22;47256;18.904;-99.054;2023-01-26T05:06:04;19.80;75.50
61386;DHT22;47256;18.904;-99.054;2023-01-26T05:08:31;19.70;76.80
61386;DHT22;47256;18.904;-99.054;2023-01-26T05:10:59;19.70;76.20
61386;DHT22;47256;18.904;-99.054;2023-01-26T05:13:57;19.80;76.70
61386;DHT22;47256;18.904;-99.054;2023-01-26T05:16:34;19.80;76.40
61386;DHT22;47256;18.904;-99.054;2023-01-26T05:19:02;19.80;76.40
61386;DHT22;47256;18.904;-99.054;2023-01-26T05:21:52;19.80;76.10
61386;DHT22;47256;18.904;-99.054;2023-01-26T05:24:20;19.80;76.20
61386;DHT22;47256;18.904;-99.054;2023-01-26T05:27:07;19.70;77.60
61386;DHT22;47256;18.904;-99.054;2023-01-26T05:29:51;19.60;77.60
61386;DHT22;47256;18.904;-99.054;2023-01-26T05:32:20;19.50;77.60
61386;DHT22;47256;18.904;-99.054;2023-01-26T05:34:49;19.40;79.20
61386;DHT22;47256;18.904;-99.054;2023-01-26T05:37:17;19.30;79.10
61386;DHT22;47256;18.904;-99.054;2023-01-26T05:39:45;19.20;79.50
61386;DHT22;47256;18.904;-99.054;2023-01-26T05:42:13;19.20;80.00
61386;DHT22;47256;18.904;-99.054;2023-01-26T05:44:58;19.20;79.30
61386;DHT22;47256;18.904;-99.054;2023-01-26T05:47:27;19.30;78.10
61386;DHT22;47256;18.904;-99.054;2023-01-26T05:49:55;19.20;78.80
61386;DHT22;47256;18.904;-99.054;2023-01-26T05:52:26;19.10;78.90
61386;DHT22;47256;18.904;-99.054;2023-01-26T05:54:55;19.10;79.20
61386;DHT22;47256;18.904;-99.054;2023-01-26T05:57:23;19.00;78.60
61386;DHT22;47256;18.904;-99.054;2023-01-26T05:59:58;19.10;79.20
61386;DHT22;47256;18.904;-99.054;2023-01-26T06:02:26;19.10;78.60
61386;DHT22;47256;18.904;-99.054;2023-01-26T06:04:54;19.10;78.60
61386;DHT22;47256;18.904;-99.054;2023-01-26T06:07:22;19.20;79.20
61386;DHT22;47256;18.904;-99.054;2023-01-26T06:10:04;19.20;78.50
61386;DHT22;47256;18.904;-99.054;2023-01-26T06:12:52;19.20;78.90
61386;DHT22;47256;18.904;-99.054;2023-01-26T06:15:35;19.10;79.50
61386;DHT22;47256;18.904;-99.054;2023-01-26T06:18:04;19.10;77.50
61386;DHT22;47256;18.904;-99.054;2023-01-26T06:20:32;19.10;76.60
61386;DHT22;47256;18.904;-99.054;2023-01-26T06:23:00;19.10;75.40
61386;DHT22;47256;18.904;-99.054;2023-01-26T06:25:31;19.00;76.60
61386;DHT22;47256;18.904;-99.054;2023-01-26T06:27:58;19.00;76.60
61386;DHT22;47256;18.904;-99.054;2023-01-26T06:30:27;19.00;77.80
61386;DHT22;47256;18.904;-99.054;2023-01-26T06:33:00;18.90;77.20
61386;DHT22;47256;18.904;-99.054;2023-01-26T06:35:28;19.00;78.20
61386;DHT22;47256;18.904;-99.054;2023-01-26T06:38:00;18.90;78.00
61386;DHT22;47256;18.904;-99.054;2023-01-26T06:40:27;18.90;77.00
61386;DHT22;47256;18.904;-99.054;2023-01-26T06:42:55;18.80;78.70
61386;DHT22;47256;18.904;-99.054;2023-01-26T06:45:22;18.90;79.50
61386;DHT22;47256;18.904;-99.054;2023-01-26T06:47:51;18.90;78.70
61386;DHT22;47256;18.904;-99.054;2023-01-26T06:50:21;19.00;78.50
61386;DHT22;47256;18.904;-99.054;2023-01-26T06:52:54;19.10;78.60
61386;DHT22;47256;18.904;-99.054;2023-01-26T06:55:47;19.10;80.00
61386;DHT22;47256;18.904;-99.054;2023-01-26T06:58:36;19.10;79.30
61386;DHT22;47256;18.904;-99.054;2023-01-26T07:01:08;19.00;78.60
61386;DHT22;47256;18.904;-99.054;2023-01-26T07:03:37;19.00;80.60
61386;DHT22;47256;18.904;-99.054;2023-01-26T07:06:04;18.90;79.20
61386;DHT22;47256;18.904;-99.054;2023-01-26T07:08:33;19.00;80.10
61386;DHT22;47256;18.904;-99.054;2023-01-26T07:11:00;19.00;78.90
61386;DHT22;47256;18.904;-99.054;2023-01-26T07:13:28;19.00;79.50
61386;DHT22;47256;18.904;-99.054;2023-01-26T07:16:10;19.10;78.90
61386;DHT22;47256;18.904;-99.054;2023-01-26T07:18:38;19.10;78.50
61386;DHT22;47256;18.904;-99.054;2023-01-26T07:21:16;19.20;78.50
61386;DHT22;47256;18.904;-99.054;2023-01-26T07:23:45;19.30;78.50
61386;DHT22;47256;18.904;-99.054;2023-01-26T07:26:13;19.40;78.30
61386;DHT22;47256;18.904;-99.054;2023-01-26T07:28:40;19.30;77.20
61386;DHT22;47256;18.904;-99.054;2023-01-26T07:31:10;19.00;77.80
61386;DHT22;47256;18.904;-99.054;2023-01-26T07:33:38;19.00;78.50
61386;DHT22;47256;18.904;-99.054;2023-01-26T07:36:06;19.00;79.60
61386;DHT22;47256;18.904;-99.054;2023-01-26T07:38:34;19.10;79.30
61386;DHT22;47256;18.904;-99.054;2023-01-26T07:41:05;19.20;79.40
61386;DHT22;47256;18.904;-99.054;2023-01-26T07:43:34;19.20;80.10
61386;DHT22;47256;18.904;-99.054;2023-01-26T07:46:02;19.20;80.80
61386;DHT22;47256;18.904;-99.054;2023-01-26T07:48:30;19.20;80.40
61386;DHT22;47256;18.904;-99.054;2023-01-26T07:50:59;19.10;81.00
61386;DHT22;47256;18.904;-99.054;2023-01-26T07:53:28;19.10;82.60
61386;DHT22;47256;18.904;-99.054;2023-01-26T07:56:13;19.00;82.00
61386;DHT22;47256;18.904;-99.054;2023-01-26T07:58:42;19.00;82.50
61386;DHT22;47256;18.904;-99.054;2023-01-26T08:01:13;18.90;82.80
61386;DHT22;47256;18.904;-99.054;2023-01-26T08:03:42;19.00;82.90
61386;DHT22;47256;18.904;-99.054;2023-01-26T08:06:13;18.80;83.40
61386;DHT22;47256;18.904;-99.054;2023-01-26T08:08:40;18.80;84.10
61386;DHT22;47256;18.904;-99.054;2023-01-26T08:11:09;18.80;84.60
61386;DHT22;47256;18.904;-99.054;2023-01-26T08:13:37;18.70;85.20
61386;DHT22;47256;18.904;-99.054;2023-01-26T08:16:09;18.70;85.50
61386;DHT22;47256;18.904;-99.054;2023-01-26T08:18:42;18.60;85.70
61386;DHT22;47256;18.904;-99.054;2023-01-26T08:21:10;18.60;85.50
61386;DHT22;47256;18.904;-99.054;2023-01-26T08:23:38;18.60;85.90
61386;DHT22;47256;18.904;-99.054;2023-01-26T08:26:09;18.70;84.90
61386;DHT22;47256;18.904;-99.054;2023-01-26T08:28:37;18.60;85.70
61386;DHT22;47256;18.904;-99.054;2023-01-26T08:31:10;18.60;86.40
61386;DHT22;47256;18.904;-99.054;2023-01-26T08:33:40;18.60;86.20
61386;DHT22;47256;18.904;-99.054;2023-01-26T08:36:10;18.50;85.90
61386;DHT22;47256;18.904;-99.054;2023-01-26T08:38:38;18.50;86.60
61386;DHT22;47256;18.904;-99.054;2023-01-26T08:41:05;18.60;86.50
61386;DHT22;47256;18.904;-99.054;2023-01-26T08:43:33;18.50;86.80
61386;DHT22;47256;18.904;-99.054;2023-01-26T08:46:00;18.50;86.30
61386;DHT22;47256;18.904;-99.054;2023-01-26T08:48:28;18.40;83.50
61386;DHT22;47256;18.904;-99.054;2023-01-26T08:50:58;18.40;86.30
61386;DHT22;47256;18.904;-99.054;2023-01-26T08:53:32;18.30;85.60
61386;DHT22;47256;18.904;-99.054;2023-01-26T08:56:01;18.20;85.80
61386;DHT22;47256;18.904;-99.054;2023-01-26T08:58:29;18.20;86.10
61386;DHT22;47256;18.904;-99.054;2023-01-26T09:00:58;18.20;86.00
61386;DHT22;47256;18.904;-99.054;2023-01-26T09:03:25;18.20;86.40
61386;DHT22;47256;18.904;-99.054;2023-01-26T09:05:58;18.20;86.30
61386;DHT22;47256;18.904;-99.054;2023-01-26T09:08:27;18.30;86.40
61386;DHT22;47256;18.904;-99.054;2023-01-26T09:10:54;18.30;85.90
61386;DHT22;47256;18.904;-99.054;2023-01-26T09:13:22;18.30;86.10
61386;DHT22;47256;18.904;-99.054;2023-01-26T09:15:49;18.20;87.10
61386;DHT22;47256;18.904;-99.054;2023-01-26T09:18:17;18.20;87.30
61386;DHT22;47256;18.904;-99.054;2023-01-26T09:20:44;18.20;86.60
61386;DHT22;47256;18.904;-99.054;2023-01-26T09:23:12;18.10;87.90
61386;DHT22;47256;18.904;-99.054;2023-01-26T09:25:39;18.00;88.00
61386;DHT22;47256;18.904;-99.054;2023-01-26T09:28:06;18.00;87.20
61386;DHT22;47256;18.904;-99.054;2023-01-26T09:30:33;18.00;87.60
61386;DHT22;47256;18.904;-99.054;2023-01-26T09:33:03;18.00;87.20
61386;DHT22;47256;18.904;-99.054;2023-01-26T09:35:31;18.00;87.60
61386;DHT22;47256;18.904;-99.054;2023-01-26T09:37:58;18.00;87.10
61386;DHT22;47256;18.904;-99.054;2023-01-26T09:40:38;18.10;86.80
61386;DHT22;47256;18.904;-99.054;2023-01-26T09:48:34;17.80;88.00
61386;DHT22;47256;18.904;-99.054;2023-01-26T09:51:18;17.90;87.90
61386;DHT22;47256;18.904;-99.054;2023-01-26T09:54:00;17.80;88.00
61386;DHT22;47256;18.904;-99.054;2023-01-26T09:56:31;17.80;88.30
61386;DHT22;47256;18.904;-99.054;2023-01-26T10:02:15;17.80;87.70
61386;DHT22;47256;18.904;-99.054;2023-01-26T10:04:48;17.90;87.50
61386;DHT22;47256;18.904;-99.054;2023-01-26T10:07:18;17.90;87.90
61386;DHT22;47256;18.904;-99.054;2023-01-26T10:09:48;17.90;88.00
61386;DHT22;47256;18.904;-99.054;2023-01-26T10:15:35;17.80;87.00
61386;DHT22;47256;18.904;-99.054;2023-01-26T10:18:18;17.80;87.80
61386;DHT22;47256;18.904;-99.054;2023-01-26T10:20:51;17.60;88.80
61386;DHT22;47256;18.904;-99.054;2023-01-26T10:23:30;17.60;88.50
61386;DHT22;47256;18.904;-99.054;2023-01-26T10:26:17;17.50;88.50
61386;DHT22;47256;18.904;-99.054;2023-01-26T10:28:49;17.50;89.50
61386;DHT22;47256;18.904;-99.054;2023-01-26T10:31:23;17.40;89.80
61386;DHT22;47256;18.904;-99.054;2023-01-26T10:34:08;17.30;89.60
61386;DHT22;47256;18.904;-99.054;2023-01-26T10:36:38;17.30;90.40
61386;DHT22;47256;18.904;-99.054;2023-01-26T10:39:07;17.30;90.50
61386;DHT22;47256;18.904;-99.054;2023-01-26T10:41:36;17.30;90.30
61386;DHT22;47256;18.904;-99.054;2023-01-26T10:44:37;17.20;90.40
61386;DHT22;47256;18.904;-99.054;2023-01-26T10:47:16;17.20;90.50
61386;DHT22;47256;18.904;-99.054;2023-01-26T10:49:44;17.20;90.20
61386;DHT22;47256;18.904;-99.054;2023-01-26T10:52:19;17.10;90.20
61386;DHT22;47256;18.904;-99.054;2023-01-26T10:55:20;17.10;90.60
61386;DHT22;47256;18.904;-99.054;2023-01-26T10:57:47;17.10;90.60
61386;DHT22;47256;18.904;-99.054;2023-01-26T11:00:22;17.10;90.60
61386;DHT22;47256;18.904;-99.054;2023-01-26T11:03:17;17.20;90.60
61386;DHT22;47256;18.904;-99.054;2023-01-26T11:05:45;17.20;90.50
61386;DHT22;47256;18.904;-99.054;2023-01-26T11:08:36;17.10;89.60
61386;DHT22;47256;18.904;-99.054;2023-01-26T11:11:05;17.00;90.70
61386;DHT22;47256;18.904;-99.054;2023-01-26T11:13:37;17.00;90.70
61386;DHT22;47256;18.904;-99.054;2023-01-26T11:16:23;17.00;90.50
61386;DHT22;47256;18.904;-99.054;2023-01-26T11:22:05;17.10;90.70
61386;DHT22;47256;18.904;-99.054;2023-01-26T11:24:59;17.10;90.70
61386;DHT22;47256;18.904;-99.054;2023-01-26T11:30:14;17.20;90.60
61386;DHT22;47256;18.904;-99.054;2023-01-26T11:33:07;17.20;90.50
61386;DHT22;47256;18.904;-99.054;2023-01-26T11:36:11;17.20;90.90
61386;DHT22;47256;18.904;-99.054;2023-01-26T11:42:12;16.90;90.00
61386;DHT22;47256;18.904;-99.054;2023-01-26T12:00:55;16.70;90.20
61386;DHT22;47256;18.904;-99.054;2023-01-26T12:06:05;16.70;90.30
61386;DHT22;47256;18.904;-99.054;2023-01-26T12:08:44;16.70;90.50
61386;DHT22;47256;18.904;-99.054;2023-01-26T12:14:28;16.60;90.20
61386;DHT22;47256;18.904;-99.054;2023-01-26T12:22:45;16.30;90.80
61386;DHT22;47256;18.904;-99.054;2023-01-26T12:25:31;16.10;90.80
61386;DHT22;47256;18.904;-99.054;2023-01-26T12:33:35;16.30;90.70
61386;DHT22;47256;18.904;-99.054;2023-01-26T12:41:37;16.40;90.90
61386;DHT22;47256;18.904;-99.054;2023-01-26T12:44:32;16.40;90.50
61386;DHT22;47256;18.904;-99.054;2023-01-26T12:52:51;16.30;90.50
61386;DHT22;47256;18.904;-99.054;2023-01-26T12:55:39;16.30;90.80
61386;DHT22;47256;18.904;-99.054;2023-01-26T12:58:16;16.30;90.80
61386;DHT22;47256;18.904;-99.054;2023-01-26T13:01:01;16.30;90.60
61386;DHT22;47256;18.904;-99.054;2023-01-26T13:03:37;16.30;90.80
61386;DHT22;47256;18.904;-99.054;2023-01-26T13:08:39;16.30;90.80
61386;DHT22;47256;18.904;-99.054;2023-01-26T13:11:07;16.40;90.80
61386;DHT22;47256;18.904;-99.054;2023-01-26T13:13:55;16.40;90.90
61386;DHT22;47256;18.904;-99.054;2023-01-26T13:16:30;16.40;91.00
61386;DHT22;47256;18.904;-99.054;2023-01-26T13:19:00;16.40;90.90
61386;DHT22;47256;18.904;-99.054;2023-01-26T13:24:02;16.30;91.20
61386;DHT22;47256;18.904;-99.054;2023-01-26T13:34:41;16.40;91.70
61386;DHT22;47256;18.904;-99.054;2023-01-26T13:40:05;16.40;92.00
61386;DHT22;47256;18.904;-99.054;2023-01-26T13:45:35;16.50;92.10
61386;DHT22;47256;18.904;-99.054;2023-01-26T13:48:15;16.60;92.30
61386;DHT22;47256;18.904;-99.054;2023-01-26T13:50:47;16.70;92.50
61386;DHT22;47256;18.904;-99.054;2023-01-26T13:53:36;16.80;92.30
61386;DHT22;47256;18.904;-99.054;2023-01-26T13:56:05;16.90;91.10
61386;DHT22;47256;18.904;-99.054;2023-01-26T13:58:33;17.00;91.60
61386;DHT22;47256;18.904;-99.054;2023-01-26T14:01:03;17.10;91.50
61386;DHT22;47256;18.904;-99.054;2023-01-26T14:03:33;17.10;92.10
61386;DHT22;47256;18.904;-99.054;2023-01-26T14:08:36;17.20;91.40
61386;DHT22;47256;18.904;-99.054;2023-01-26T14:11:13;17.20;91.20
61386;DHT22;47256;18.904;-99.054;2023-01-26T14:13:42;17.10;91.50
61386;DHT22;47256;18.904;-99.054;2023-01-26T14:16:21;17.20;91.60
61386;DHT22;47256;18.904;-99.054;2023-01-26T14:18:51;17.30;91.40
61386;DHT22;47256;18.904;-99.054;2023-01-26T14:21:20;17.20;91.50
61386;DHT22;47256;18.904;-99.054;2023-01-26T14:23:57;17.20;91.50
61386;DHT22;47256;18.904;-99.054;2023-01-26T14:26:32;17.30;91.10
61386;DHT22;47256;18.904;-99.054;2023-01-26T14:28:59;17.30;91.30
61386;DHT22;47256;18.904;-99.054;2023-01-26T14:31:29;17.30;91.10
61386;DHT22;47256;18.904;-99.054;2023-01-26T14:33:58;17.40;91.40
61386;DHT22;47256;18.904;-99.054;2023-01-26T14:36:28;17.50;90.60
61386;DHT22;47256;18.904;-99.054;2023-01-26T14:38:57;17.60;91.00
61386;DHT22;47256;18.904;-99.054;2023-01-26T14:41:31;17.70;91.40
61386;DHT22;47256;18.904;-99.054;2023-01-26T14:43:59;17.80;91.60
61386;DHT22;47256;18.904;-99.054;2023-01-26T14:52:22;18.50;91.40
61386;DHT22;47256;18.904;-99.054;2023-01-26T14:54:57;18.80;89.40
61386;DHT22;47256;18.904;-99.054;2023-01-26T14:57:26;19.00;88.30
61386;DHT22;47256;18.904;-99.054;2023-01-26T14:59:56;19.10;89.90
61386;DHT22;47256;18.904;-99.054;2023-01-26T15:02:43;19.30;87.40
61386;DHT22;47256;18.904;-99.054;2023-01-26T15:05:22;19.50;89.20
61386;DHT22;47256;18.904;-99.054;2023-01-26T15:08:22;19.70;89.70
61386;DHT22;47256;18.904;-99.054;2023-01-26T15:11:00;19.80;88.30
61386;DHT22;47256;18.904;-99.054;2023-01-26T15:13:51;20.00;89.70
61386;DHT22;47256;18.904;-99.054;2023-01-26T15:16:29;20.10;85.90
61386;DHT22;47256;18.904;-99.054;2023-01-26T15:19:01;20.30;88.40
61386;DHT22;47256;18.904;-99.054;2023-01-26T15:21:34;20.50;84.90
61386;DHT22;47256;18.904;-99.054;2023-01-26T15:24:13;20.60;86.40
61386;DHT22;47256;18.904;-99.054;2023-01-26T15:26:42;20.80;87.50
61386;DHT22;47256;18.904;-99.054;2023-01-26T15:29:30;20.90;85.80
61386;DHT22;47256;18.904;-99.054;2023-01-26T15:31:58;21.10;85.30
61386;DHT22;47256;18.904;-99.054;2023-01-26T15:37:01;21.40;82.30
61386;DHT22;47256;18.904;-99.054;2023-01-26T15:39:29;21.50;82.40
61386;DHT22;47256;18.904;-99.054;2023-01-26T15:42:14;21.70;82.90
61386;DHT22;47256;18.904;-99.054;2023-01-26T15:44:42;21.80;80.70
61386;DHT22;47256;18.904;-99.054;2023-01-26T15:47:10;21.90;81.10
61386;DHT22;47256;18.904;-99.054;2023-01-26T15:49:39;22.00;80.80
61386;DHT22;47256;18.904;-99.054;2023-01-26T15:52:37;22.20;80.60
61386;DHT22;47256;18.904;-99.054;2023-01-26T15:55:23;22.40;81.20
61386;DHT22;47256;18.904;-99.054;2023-01-26T15:57:51;22.60;81.70
61386;DHT22;47256;18.904;-99.054;2023-01-26T16:00:19;22.80;80.20
61386;DHT22;47256;18.904;-99.054;2023-01-26T16:02:47;22.80;78.40
61386;DHT22;47256;18.904;-99.054;2023-01-26T16:05:17;22.90;78.20
61386;DHT22;47256;18.904;-99.054;2023-01-26T16:07:45;23.00;76.90
61386;DHT22;47256;18.904;-99.054;2023-01-26T16:10:15;23.00;76.30
61386;DHT22;47256;18.904;-99.054;2023-01-26T16:12:48;23.20;78.90
61386;DHT22;47256;18.904;-99.054;2023-01-26T16:18:35;23.50;75.30
61386;DHT22;47256;18.904;-99.054;2023-01-26T16:21:20;23.60;75.50
61386;DHT22;47256;18.904;-99.054;2023-01-26T16:23:48;23.60;75.30
61386;DHT22;47256;18.904;-99.054;2023-01-26T16:26:17;23.60;75.70
61386;DHT22;47256;18.904;-99.054;2023-01-26T16:28:45;23.70;75.40
61386;DHT22;47256;18.904;-99.054;2023-01-26T16:31:19;23.80;74.80
61386;DHT22;47256;18.904;-99.054;2023-01-26T16:33:48;23.90;74.60
61386;DHT22;47256;18.904;-99.054;2023-01-26T16:36:17;23.70;74.10
61386;DHT22;47256;18.904;-99.054;2023-01-26T16:38:45;23.60;73.50
61386;DHT22;47256;18.904;-99.054;2023-01-26T16:41:16;23.40;74.80
61386;DHT22;47256;18.904;-99.054;2023-01-26T16:43:45;23.20;75.10
61386;DHT22;47256;18.904;-99.054;2023-01-26T16:46:12;23.10;75.70
61386;DHT22;47256;18.904;-99.054;2023-01-26T16:48:40;23.00;76.60
61386;DHT22;47256;18.904;-99.054;2023-01-26T16:51:16;22.90;77.10
61386;DHT22;47256;18.904;-99.054;2023-01-26T16:53:45;22.90;77.70
61386;DHT22;47256;18.904;-99.054;2023-01-26T16:56:13;22.80;78.40
61386;DHT22;47256;18.904;-99.054;2023-01-26T16:58:42;22.80;80.20
61386;DHT22;47256;18.904;-99.054;2023-01-26T17:01:24;22.80;80.40
61386;DHT22;47256;18.904;-99.054;2023-01-26T17:03:57;22.90;79.60
61386;DHT22;47256;18.904;-99.054;2023-01-26T17:06:24;23.10;80.20
61386;DHT22;47256;18.904;-99.054;2023-01-26T17:08:53;23.20;77.60
61386;DHT22;47256;18.904;-99.054;2023-01-26T17:11:22;23.20;79.10
61386;DHT22;47256;18.904;-99.054;2023-01-26T17:13:50;23.30;76.50
61386;DHT22;47256;18.904;-99.054;2023-01-26T17:16:23;23.30;76.40
61386;DHT22;47256;18.904;-99.054;2023-01-26T17:18:51;23.70;75.90
61386;DHT22;47256;18.904;-99.054;2023-01-26T17:21:19;23.90;78.20